Time;durP1;ratioP1;P1;durP2;ratioP2;P2;SDS_P1;SDS_P2;PMS_P1;PMS_P2;Temp;Humidity;BMP_temperature;BMP_pressure;BME280_temperature;BME280_humidity;BME280_pressure;Samples;Min_cycle;Max_cycle;Signal;HPM_P1;HPM_P2
2024/03/22 00:00:12;;;;;;;44.53;18.95;;;;;;;;;;5028997;28;20368;-69
2024/03/22 00:02:38;;;;;;;41.58;15.82;;;;;;;;;;5020240;28;20510;-69
2024/03/22 00:05:03;;;;;;;41.88;17.42;;;;;;;;;;5025331;28;20025;-69
2024/03/22 00:07:28;;;;;;;42.15;16.70;;;;;;;;;;5027150;28;20038;-69
2024/03/22 00:09:53;;;;;;;29.80;11.03;;;;;;;;;;5024977;28;20026;-69
2024/03/22 00:12:19;;;;;;;42.40;17.40;;;;;;;;;;5028229;28;20253;-69
2024/03/22 00:14:44;;;;;;;33.20;13.43;;;;;;;;;;5027561;28;20283;-69
2024/03/22 00:17:09;;;;;;;47.63;18.47;;;;;;;;;;5021581;28;20260;-69
2024/03/22 00:19:34;;;;;;;51.00;18.67;;;;;;;;;;5023852;28;20272;-69
2024/03/22 00:22:00;;;;;;;44.13;17.98;;;;;;;;;;5028586;28;20271;-69
2024/03/22 00:24:25;;;;;;;44.33;15.32;;;;;;;;;;5022314;28;20096;-69
2024/03/22 00:26:50;;;;;;;42.57;17.57;;;;;;;;;;5017528;28;20024;-69
2024/03/22 00:29:15;;;;;;;45.43;18.13;;;;;;;;;;5029718;28;20311;-69
2024/03/22 00:31:40;;;;;;;45.75;18.40;;;;;;;;;;5029064;28;20261;-69
2024/03/22 00:34:06;;;;;;;42.72;17.83;;;;;;;;;;5023647;28;20029;-69
2024/03/22 00:36:31;;;;;;;33.87;16.20;;;;;;;;;;5027926;28;20029;-69
2024/03/22 00:38:57;;;;;;;30.33;13.50;;;;;;;;;;5025173;28;20646;-69
2024/03/22 00:41:22;;;;;;;43.58;16.38;;;;;;;;;;5026509;28;20384;-66
2024/03/22 00:43:47;;;;;;;41.90;17.23;;;;;;;;;;5024920;28;20392;-69
2024/03/22 00:46:12;;;;;;;36.33;15.17;;;;;;;;;;5030294;28;20276;-68
2024/03/22 00:48:37;;;;;;;35.27;16.17;;;;;;;;;;5024799;28;20630;-69
2024/03/22 00:51:02;;;;;;;42.60;17.30;;;;;;;;;;5027553;28;20256;-68
2024/03/22 00:53:29;;;;;;;40.20;14.98;;;;;;;;;;5028471;28;20301;-69
2024/03/22 00:55:55;;;;;;;38.90;15.82;;;;;;;;;;5026482;28;20715;-69
2024/03/22 00:58:21;;;;;;;34.08;13.18;;;;;;;;;;5021361;28;20084;-69
2024/03/22 01:00:46;;;;;;;29.08;10.70;;;;;;;;;;5018741;28;20017;-69
2024/03/22 01:03:11;;;;;;;25.15;10.15;;;;;;;;;;5022138;28;20026;-69
2024/03/22 01:05:36;;;;;;;38.70;14.93;;;;;;;;;;5028218;28;20026;-69
2024/03/22 01:08:02;;;;;;;41.10;16.43;;;;;;;;;;5021679;28;20022;-69
2024/03/22 01:10:27;;;;;;;34.65;15.07;;;;;;;;;;5028581;28;20672;-68
2024/03/22 01:12:52;;;;;;;44.27;17.03;;;;;;;;;;5027276;28;20028;-69
2024/03/22 01:15:17;;;;;;;43.30;18.13;;;;;;;;;;5027330;28;20723;-68
2024/03/22 01:17:42;;;;;;;40.20;16.90;;;;;;;;;;5029217;28;20181;-69
2024/03/22 01:20:08;;;;;;;39.77;16.60;;;;;;;;;;5025571;28;20499;-69
2024/03/22 01:22:33;;;;;;;44.17;14.45;;;;;;;;;;5028141;28;20314;-69
2024/03/22 01:24:58;;;;;;;29.03;11.70;;;;;;;;;;5032139;28;20025;-68
2024/03/22 01:27:23;;;;;;;39.00;15.57;;;;;;;;;;5027897;28;20256;-69
2024/03/22 01:29:49;;;;;;;36.30;15.52;;;;;;;;;;5028447;28;20639;-69
2024/03/22 01:32:14;;;;;;;34.60;16.10;;;;;;;;;;5032284;28;20112;-69
2024/03/22 01:34:39;;;;;;;38.10;13.20;;;;;;;;;;5031316;28;20284;-69
2024/03/22 01:37:04;;;;;;;38.72;15.00;;;;;;;;;;5030405;28;20291;-68
2024/03/22 01:39:29;;;;;;;35.75;12.50;;;;;;;;;;5027229;28;20029;-69
2024/03/22 01:41:55;;;;;;;37.77;15.37;;;;;;;;;;5031151;28;20040;-68
2024/03/22 01:44:26;;;;;;;35.80;13.97;;;;;;;;;;5032559;28;20280;-69
2024/03/22 01:46:51;;;;;;;33.10;13.70;;;;;;;;;;5029906;28;20342;-68
2024/03/22 01:49:17;;;;;;;32.60;14.25;;;;;;;;;;5031739;28;20029;-68
2024/03/22 01:51:43;;;;;;;34.72;14.45;;;;;;;;;;5028129;28;20037;-69
2024/03/22 01:54:09;;;;;;;36.15;14.15;;;;;;;;;;5031206;28;20388;-69
2024/03/22 01:56:36;;;;;;;31.27;13.93;;;;;;;;;;5029522;28;20014;-69
2024/03/22 01:59:02;;;;;;;35.65;13.45;;;;;;;;;;5031659;28;20021;-69
2024/03/22 02:01:27;;;;;;;34.45;12.32;;;;;;;;;;5030798;28;20029;-69
2024/03/22 02:03:52;;;;;;;35.88;13.43;;;;;;;;;;5031134;28;20028;-69
2024/03/22 02:06:17;;;;;;;36.13;13.93;;;;;;;;;;5030571;28;20023;-69
2024/03/22 02:08:44;;;;;;;30.52;11.70;;;;;;;;;;5030470;28;20640;-68
2024/03/22 02:11:09;;;;;;;26.60;10.52;;;;;;;;;;5031483;28;20388;-69
2024/03/22 02:13:34;;;;;;;31.33;14.13;;;;;;;;;;5031454;28;20075;-69
2024/03/22 02:16:02;;;;;;;30.90;12.70;;;;;;;;;;5030212;28;20032;-69
2024/03/22 02:18:27;;;;;;;30.17;13.65;;;;;;;;;;5030908;28;20392;-68
2024/03/22 02:20:52;;;;;;;35.60;13.48;;;;;;;;;;5024746;28;20018;-69
2024/03/22 02:23:18;;;;;;;30.50;13.07;;;;;;;;;;5031917;28;20096;-69
2024/03/22 02:25:43;;;;;;;32.13;12.90;;;;;;;;;;5031110;28;20735;-69
2024/03/22 02:28:08;;;;;;;39.25;12.20;;;;;;;;;;5026507;28;20017;-69
2024/03/22 02:30:33;;;;;;;30.70;12.45;;;;;;;;;;5022239;28;20029;-69
2024/03/22 02:32:58;;;;;;;23.30;10.75;;;;;;;;;;5031186;28;20451;-69
2024/03/22 02:35:24;;;;;;;24.57;8.50;;;;;;;;;;5027763;28;20427;-69
2024/03/22 02:37:50;;;;;;;33.85;12.13;;;;;;;;;;5027093;28;20274;-69
2024/03/22 02:40:15;;;;;;;33.90;11.73;;;;;;;;;;5026695;28;20049;-68
2024/03/22 02:42:40;;;;;;;29.00;12.00;;;;;;;;;;5030713;28;20476;-69
2024/03/22 02:45:05;;;;;;;34.30;13.73;;;;;;;;;;5029044;28;20308;-69
2024/03/22 02:47:30;;;;;;;34.08;12.45;;;;;;;;;;5029314;28;20751;-69
2024/03/22 02:49:56;;;;;;;35.60;13.03;;;;;;;;;;5026116;28;20388;-69
2024/03/22 02:52:21;;;;;;;34.35;11.93;;;;;;;;;;5025637;28;20302;-69
2024/03/22 02:54:46;;;;;;;26.37;11.00;;;;;;;;;;5024424;28;20093;-69
2024/03/22 02:57:11;;;;;;;24.40;10.57;;;;;;;;;;5028597;28;20347;-69
2024/03/22 02:59:36;;;;;;;30.70;11.33;;;;;;;;;;5029544;28;20252;-68
2024/03/22 03:02:01;;;;;;;25.85;10.98;;;;;;;;;;5029239;28;20720;-69
2024/03/22 03:04:27;;;;;;;31.25;11.38;;;;;;;;;;5028958;28;20494;-69
2024/03/22 03:06:52;;;;;;;35.60;11.47;;;;;;;;;;5028087;28;20033;-69
2024/03/22 03:09:17;;;;;;;31.58;13.65;;;;;;;;;;5029556;28;20252;-69
2024/03/22 03:11:42;;;;;;;30.23;11.60;;;;;;;;;;5028081;28;20374;-69
2024/03/22 03:14:08;;;;;;;29.07;10.80;;;;;;;;;;5030030;28;20090;-69
2024/03/22 03:16:33;;;;;;;29.67;11.57;;;;;;;;;;5029165;28;20261;-69
2024/03/22 03:18:58;;;;;;;28.53;11.33;;;;;;;;;;5030385;28;20292;-69
2024/03/22 03:21:23;;;;;;;33.77;13.47;;;;;;;;;;5021889;28;20600;-69
2024/03/22 03:23:48;;;;;;;30.47;10.83;;;;;;;;;;5024539;28;20276;-69
2024/03/22 03:26:13;;;;;;;27.70;10.77;;;;;;;;;;5028129;28;20367;-69
2024/03/22 03:28:39;;;;;;;27.13;10.98;;;;;;;;;;5029526;28;20026;-69
2024/03/22 03:31:04;;;;;;;28.03;10.67;;;;;;;;;;5022874;28;20654;-69
2024/03/22 03:33:29;;;;;;;28.73;11.10;;;;;;;;;;5021524;28;20268;-69
2024/03/22 03:35:54;;;;;;;28.23;12.27;;;;;;;;;;5028007;28;20480;-69
2024/03/22 03:38:21;;;;;;;25.23;11.10;;;;;;;;;;5021698;28;20044;-69
2024/03/22 03:40:46;;;;;;;28.63;12.85;;;;;;;;;;5026729;28;20276;-69
2024/03/22 03:43:11;;;;;;;26.23;9.23;;;;;;;;;;5021880;28;20531;-68
2024/03/22 03:45:37;;;;;;;15.97;7.07;;;;;;;;;;5029171;28;20295;-68
2024/03/22 03:48:02;;;;;;;24.83;11.30;;;;;;;;;;5024599;28;20267;-69
2024/03/22 03:50:27;;;;;;;20.38;9.10;;;;;;;;;;5024892;28;20048;-69
2024/03/22 03:52:52;;;;;;;29.17;10.53;;;;;;;;;;5029926;28;20045;-69
2024/03/22 03:55:18;;;;;;;31.03;12.53;;;;;;;;;;5028326;28;20284;-69
2024/03/22 03:57:43;;;;;;;22.40;9.37;;;;;;;;;;5024534;28;20366;-69
2024/03/22 04:00:08;;;;;;;31.17;11.00;;;;;;;;;;5025429;28;20260;-69
2024/03/22 04:02:33;;;;;;;27.65;11.10;;;;;;;;;;5028791;28;20631;-69
2024/03/22 04:04:58;;;;;;;30.37;10.07;;;;;;;;;;5026740;28;20115;-69
2024/03/22 04:07:24;;;;;;;26.97;10.77;;;;;;;;;;5037256;28;20305;-69
2024/03/22 04:09:49;;;;;;;26.70;10.32;;;;;;;;;;5036779;28;20276;-69
2024/03/22 04:12:14;;;;;;;28.52;11.98;;;;;;;;;;5035768;28;20037;-68
2024/03/22 04:14:39;;;;;;;26.50;10.43;;;;;;;;;;5026206;28;20388;-69
2024/03/22 04:17:04;;;;;;;20.77;8.33;;;;;;;;;;5029524;28;20253;-68
2024/03/22 04:19:29;;;;;;;25.50;10.10;;;;;;;;;;5038023;28;20642;-69
2024/03/22 04:21:55;;;;;;;26.20;9.90;;;;;;;;;;5035226;28;20256;-69
2024/03/22 04:24:20;;;;;;;26.23;9.13;;;;;;;;;;5030493;28;20017;-69
2024/03/22 04:26:45;;;;;;;26.30;9.63;;;;;;;;;;5022979;28;20725;-69
2024/03/22 04:29:10;;;;;;;25.52;10.25;;;;;;;;;;5033061;28;20278;-68
2024/03/22 04:31:35;;;;;;;27.27;9.77;;;;;;;;;;5042293;28;20021;-69
2024/03/22 04:34:01;;;;;;;36.20;11.48;;;;;;;;;;5033414;28;20690;-69
2024/03/22 04:36:26;;;;;;;26.67;10.85;;;;;;;;;;5032165;28;20022;-69
2024/03/22 04:38:51;;;;;;;23.77;9.10;;;;;;;;;;5028676;28;20022;-69
2024/03/22 04:41:16;;;;;;;26.30;10.30;;;;;;;;;;5037291;28;20292;-69
2024/03/22 04:43:42;;;;;;;24.00;10.43;;;;;;;;;;5048892;28;20734;-69
2024/03/22 04:46:07;;;;;;;20.15;8.68;;;;;;;;;;5040842;28;20368;-69
2024/03/22 04:48:32;;;;;;;26.23;10.47;;;;;;;;;;5036616;28;20105;-69
2024/03/22 04:50:58;;;;;;;21.00;8.57;;;;;;;;;;5024977;28;20284;-69
2024/03/22 04:53:23;;;;;;;11.50;5.33;;;;;;;;;;5041951;28;20765;-68
2024/03/22 04:55:49;;;;;;;29.40;9.73;;;;;;;;;;5051003;28;20271;-69
2024/03/22 04:58:18;;;;;;;20.45;9.52;;;;;;;;;;5043952;28;20248;-69
2024/03/22 05:00:43;;;;;;;23.70;10.02;;;;;;;;;;5030457;28;20051;-69
2024/03/22 05:03:08;;;;;;;24.70;9.50;;;;;;;;;;5032565;28;20045;-69
2024/03/22 05:05:34;;;;;;;26.33;11.20;;;;;;;;;;5040307;28;20024;-68
2024/03/22 05:07:59;;;;;;;22.90;8.90;;;;;;;;;;5035147;28;20793;-69
2024/03/22 05:10:25;;;;;;;25.93;11.03;;;;;;;;;;5031515;28;20044;-69
2024/03/22 05:12:50;;;;;;;27.25;10.18;;;;;;;;;;5037145;28;20255;-68
2024/03/22 05:15:15;;;;;;;26.70;11.17;;;;;;;;;;5035045;28;20108;-69
2024/03/22 05:17:41;;;;;;;23.60;9.63;;;;;;;;;;5030881;28;20264;-69
2024/03/22 05:20:10;;;;;;;21.70;8.73;;;;;;;;;;5033864;28;20537;-69
2024/03/22 05:22:35;;;;;;;24.83;9.15;;;;;;;;;;5039865;28;20045;-69
2024/03/22 05:25:00;;;;;;;25.10;9.73;;;;;;;;;;5029490;28;20083;-69
2024/03/22 05:27:26;;;;;;;26.67;9.65;;;;;;;;;;5031046;28;20299;-69
2024/03/22 05:29:51;;;;;;;34.60;10.37;;;;;;;;;;5032488;28;20052;-69
2024/03/22 05:32:16;;;;;;;23.43;10.70;;;;;;;;;;5031242;28;20329;-69
2024/03/22 05:34:41;;;;;;;24.08;10.90;;;;;;;;;;5032298;28;20292;-69
2024/03/22 05:37:08;;;;;;;24.50;9.50;;;;;;;;;;5031129;28;20018;-69
2024/03/22 05:39:34;;;;;;;22.30;9.90;;;;;;;;;;5029653;28;20279;-69
2024/03/22 05:41:59;;;;;;;21.17;8.20;;;;;;;;;;5031507;28;20317;-69
2024/03/22 05:44:24;;;;;;;23.33;9.63;;;;;;;;;;5030236;28;20033;-69
2024/03/22 05:46:49;;;;;;;20.17;10.30;;;;;;;;;;5030841;28;20041;-69
2024/03/22 05:49:15;;;;;;;22.40;9.77;;;;;;;;;;5031139;28;20686;-69
2024/03/22 05:51:40;;;;;;;24.67;10.07;;;;;;;;;;5027792;28;20037;-68
2024/03/22 05:54:06;;;;;;;26.57;10.13;;;;;;;;;;5027565;28;20480;-69
2024/03/22 05:56:31;;;;;;;25.33;10.20;;;;;;;;;;5027097;28;20367;-69
2024/03/22 05:58:56;;;;;;;26.13;9.50;;;;;;;;;;5028662;28;20037;-69
2024/03/22 06:01:21;;;;;;;20.93;9.20;;;;;;;;;;5028429;28;20550;-69
2024/03/22 06:03:47;;;;;;;25.63;9.53;;;;;;;;;;5026506;28;20268;-69
2024/03/22 06:06:12;;;;;;;22.87;9.53;;;;;;;;;;5027464;28;20274;-69
2024/03/22 06:08:39;;;;;;;29.50;10.93;;;;;;;;;;5028201;28;20343;-68
2024/03/22 06:11:04;;;;;;;26.50;9.60;;;;;;;;;;5027340;28;20544;-69
2024/03/22 06:13:32;;;;;;;19.80;9.57;;;;;;;;;;5025222;28;20179;-69
2024/03/22 06:15:57;;;;;;;30.75;10.07;;;;;;;;;;5023055;28;20029;-69
2024/03/22 06:18:22;;;;;;;26.93;10.63;;;;;;;;;;5014037;28;20500;-69
2024/03/22 06:20:47;;;;;;;26.33;10.00;;;;;;;;;;5028788;28;20260;-69
2024/03/22 06:23:12;;;;;;;19.63;9.87;;;;;;;;;;5027654;28;20804;-69
2024/03/22 06:25:37;;;;;;;19.87;9.33;;;;;;;;;;5024869;28;20272;-69
2024/03/22 06:28:03;;;;;;;27.20;10.33;;;;;;;;;;5025296;28;20696;-69
2024/03/22 06:30:28;;;;;;;23.42;10.80;;;;;;;;;;5027923;28;20377;-69
2024/03/22 06:32:54;;;;;;;26.83;11.23;;;;;;;;;;5034556;28;20281;-69
2024/03/22 06:35:19;;;;;;;35.85;11.50;;;;;;;;;;5023753;28;20047;-69
2024/03/22 06:37:45;;;;;;;25.17;11.43;;;;;;;;;;5030054;28;20404;-68
2024/03/22 06:40:10;;;;;;;26.95;11.27;;;;;;;;;;5037551;28;20253;-69
2024/03/22 06:42:36;;;;;;;23.45;10.32;;;;;;;;;;5029056;28;20018;-68
2024/03/22 06:45:02;;;;;;;24.02;10.05;;;;;;;;;;5031706;28;20044;-69
2024/03/22 06:47:27;;;;;;;28.33;11.65;;;;;;;;;;5029834;28;20029;-69
2024/03/22 06:49:52;;;;;;;25.02;9.90;;;;;;;;;;5028293;28;20025;-69
2024/03/22 06:52:19;;;;;;;22.88;10.02;;;;;;;;;;5029922;28;20384;-69
2024/03/22 06:54:44;;;;;;;29.65;12.50;;;;;;;;;;5036363;28;20033;-69
2024/03/22 06:57:09;;;;;;;23.67;9.88;;;;;;;;;;5029730;28;20025;-69
2024/03/22 06:59:35;;;;;;;28.73;9.90;;;;;;;;;;5025521;28;20060;-69
2024/03/22 07:02:00;;;;;;;23.33;10.80;;;;;;;;;;5025813;28;20268;-68
2024/03/22 07:04:25;;;;;;;24.63;10.70;;;;;;;;;;5025303;28;20268;-69
2024/03/22 07:06:50;;;;;;;23.77;10.20;;;;;;;;;;5026831;28;20025;-69
2024/03/22 07:09:15;;;;;;;28.10;9.77;;;;;;;;;;5029208;28;20683;-69
2024/03/22 07:11:40;;;;;;;27.53;10.20;;;;;;;;;;5024398;28;20255;-69
2024/03/22 07:14:06;;;;;;;20.40;8.88;;;;;;;;;;5028702;28;20763;-69
2024/03/22 07:16:31;;;;;;;16.98;7.97;;;;;;;;;;5026667;28;20055;-69
2024/03/22 07:18:56;;;;;;;22.27;11.03;;;;;;;;;;5029467;28;20036;-69
2024/03/22 07:21:21;;;;;;;21.13;10.45;;;;;;;;;;5024967;28;20695;-69
2024/03/22 07:23:46;;;;;;;18.07;7.73;;;;;;;;;;5034149;28;20017;-69
2024/03/22 07:26:12;;;;;;;27.50;9.10;;;;;;;;;;5028182;28;20751;-69
2024/03/22 07:28:37;;;;;;;18.23;7.22;;;;;;;;;;5028621;28;20280;-69
2024/03/22 07:31:02;;;;;;;22.02;9.07;;;;;;;;;;5024642;28;20049;-69
2024/03/22 07:33:27;;;;;;;22.67;9.85;;;;;;;;;;5024529;28;20433;-69
2024/03/22 07:35:54;;;;;;;30.02;8.63;;;;;;;;;;5025377;28;20416;-69
2024/03/22 07:38:19;;;;;;;25.25;7.68;;;;;;;;;;5029064;28;20025;-69
2024/03/22 07:40:44;;;;;;;16.95;7.47;;;;;;;;;;5029133;28;20024;-69
2024/03/22 07:43:10;;;;;;;22.10;6.33;;;;;;;;;;5033913;28;20025;-70
2024/03/22 07:45:35;;;;;;;20.40;7.43;;;;;;;;;;5028881;28;20298;-69
2024/03/22 07:48:00;;;;;;;24.15;8.68;;;;;;;;;;5026007;28;20271;-69
2024/03/22 07:50:25;;;;;;;18.63;8.18;;;;;;;;;;5033292;28;20044;-69
2024/03/22 07:52:51;;;;;;;23.17;10.00;;;;;;;;;;5029118;28;20469;-69
2024/03/22 07:55:16;;;;;;;16.10;7.22;;;;;;;;;;5028900;28;20341;-69
2024/03/22 07:57:41;;;;;;;18.63;9.20;;;;;;;;;;5032344;28;20535;-69
2024/03/22 08:00:07;;;;;;;16.07;7.53;;;;;;;;;;5037739;28;20260;-69
2024/03/22 08:02:33;;;;;;;18.83;8.20;;;;;;;;;;5030549;28;20088;-69
2024/03/22 08:04:58;;;;;;;10.47;4.87;;;;;;;;;;5032608;28;20069;-69
2024/03/22 08:07:23;;;;;;;28.97;10.83;;;;;;;;;;5036461;28;20029;-69
2024/03/22 08:09:48;;;;;;;26.63;11.68;;;;;;;;;;5035708;28;20048;-68
2024/03/22 08:12:13;;;;;;;25.97;11.43;;;;;;;;;;5027963;28;20029;-69
2024/03/22 08:14:39;;;;;;;33.57;11.70;;;;;;;;;;5026629;28;20292;-69
2024/03/22 08:17:04;;;;;;;27.88;9.25;;;;;;;;;;5030820;28;20482;-69
2024/03/22 08:19:29;;;;;;;25.38;8.30;;;;;;;;;;5027509;28;20025;-69
2024/03/22 08:21:54;;;;;;;23.10;12.17;;;;;;;;;;5020596;28;20024;-69
2024/03/22 08:24:19;;;;;;;25.63;11.07;;;;;;;;;;5025103;28;20256;-69
2024/03/22 08:26:46;;;;;;;23.70;11.67;;;;;;;;;;5035704;28;20025;-70
2024/03/22 08:29:12;;;;;;;28.90;13.27;;;;;;;;;;5046801;28;20025;-69
2024/03/22 08:31:38;;;;;;;26.30;11.90;;;;;;;;;;5031312;28;20021;-67
2024/03/22 08:34:05;;;;;;;28.57;13.63;;;;;;;;;;5038219;28;20025;-67
2024/03/22 08:36:30;;;;;;;29.70;12.25;;;;;;;;;;5027259;28;20021;-67
2024/03/22 08:38:55;;;;;;;22.57;11.93;;;;;;;;;;5031228;28;20498;-67
2024/03/22 08:41:21;;;;;;;24.20;11.30;;;;;;;;;;5031821;28;20101;-67
2024/03/22 08:43:46;;;;;;;24.92;12.95;;;;;;;;;;5035923;28;20024;-66
2024/03/22 08:46:11;;;;;;;26.63;11.93;;;;;;;;;;5034755;28;20033;-66
2024/03/22 08:48:36;;;;;;;19.30;9.75;;;;;;;;;;5032248;28;20034;-67
2024/03/22 08:51:01;;;;;;;16.87;7.33;;;;;;;;;;5033518;28;20037;-66
2024/03/22 08:53:28;;;;;;;15.15;6.03;;;;;;;;;;5029236;28;20140;-66
2024/03/22 08:55:53;;;;;;;17.73;8.67;;;;;;;;;;5036878;28;20125;-67
2024/03/22 08:58:18;;;;;;;18.57;6.60;;;;;;;;;;5031370;28;20056;-67
2024/03/22 09:00:46;;;;;;;17.60;9.73;;;;;;;;;;5030102;28;20576;-68
2024/03/22 09:03:11;;;;;;;21.35;7.47;;;;;;;;;;5031426;28;20410;-67
2024/03/22 09:05:37;;;;;;;14.35;8.52;;;;;;;;;;5030242;28;20551;-68
2024/03/22 09:08:03;;;;;;;15.10;8.20;;;;;;;;;;5035303;28;20021;-67
2024/03/22 09:10:28;;;;;;;11.82;4.50;;;;;;;;;;5031073;28;20021;-68
2024/03/22 09:12:54;;;;;;;18.95;7.75;;;;;;;;;;5031286;28;20037;-68
2024/03/22 09:15:19;;;;;;;21.58;7.50;;;;;;;;;;5029933;28;20454;-67
2024/03/22 09:17:44;;;;;;;18.38;7.72;;;;;;;;;;5033312;28;20467;-68
2024/03/22 09:20:10;;;;;;;15.07;6.93;;;;;;;;;;5031288;28;20438;-67
2024/03/22 09:22:35;;;;;;;19.63;7.35;;;;;;;;;;5030027;28;20033;-67
2024/03/22 09:25:00;;;;;;;21.10;9.20;;;;;;;;;;5031816;28;20033;-68
2024/03/22 09:27:25;;;;;;;14.27;7.00;;;;;;;;;;5037303;28;20041;-67
2024/03/22 09:29:50;;;;;;;17.27;7.00;;;;;;;;;;5030624;28;20029;-67
2024/03/22 09:32:15;;;;;;;13.47;6.47;;;;;;;;;;5037181;28;20025;-67
2024/03/22 09:34:42;;;;;;;10.90;4.93;;;;;;;;;;5032007;28;20056;-67
2024/03/22 09:37:08;;;;;;;9.68;5.13;;;;;;;;;;5031694;28;20052;-67
2024/03/22 09:39:33;;;;;;;11.38;4.55;;;;;;;;;;5031275;28;20353;-67
2024/03/22 09:41:58;;;;;;;15.07;5.60;;;;;;;;;;5028184;28;20017;-68
2024/03/22 09:44:27;;;;;;;10.30;5.05;;;;;;;;;;5025457;28;20437;-67
2024/03/22 09:46:52;;;;;;;14.70;5.55;;;;;;;;;;5028981;28;20021;-67
2024/03/22 09:49:17;;;;;;;18.92;7.63;;;;;;;;;;5030962;28;20026;-67
2024/03/22 09:51:43;;;;;;;17.08;6.68;;;;;;;;;;5029882;28;20036;-67
2024/03/22 09:54:09;;;;;;;14.82;6.18;;;;;;;;;;5034455;28;20017;-67
2024/03/22 09:56:34;;;;;;;15.13;7.30;;;;;;;;;;5031732;28;20033;-67
2024/03/22 09:59:00;;;;;;;21.50;8.20;;;;;;;;;;5031432;28;20102;-67
2024/03/22 10:01:25;;;;;;;15.10;5.70;;;;;;;;;;5028749;28;20028;-67
2024/03/22 10:03:54;;;;;;;13.05;5.85;;;;;;;;;;5037162;28;20427;-68
2024/03/22 10:06:19;;;;;;;13.93;5.90;;;;;;;;;;5023025;28;20022;-67
2024/03/22 10:08:45;;;;;;;14.13;6.72;;;;;;;;;;5031058;28;20031;-67
2024/03/22 10:11:10;;;;;;;16.25;8.55;;;;;;;;;;5036996;28;20025;-68
2024/03/22 10:13:35;;;;;;;10.32;5.72;;;;;;;;;;5028557;28;20034;-68
2024/03/22 10:16:00;;;;;;;11.63;6.57;;;;;;;;;;5034885;28;20083;-68
2024/03/22 10:18:26;;;;;;;12.90;6.40;;;;;;;;;;5025056;28;20025;-68
2024/03/22 10:21:03;;;;;;;9.25;5.22;;;;;;;;;;5036747;28;20665;-67
2024/03/22 10:23:29;;;;;;;18.30;7.68;;;;;;;;;;5029999;28;20419;-68
2024/03/22 10:25:56;;;;;;;12.15;6.88;;;;;;;;;;5025428;28;20029;-68
2024/03/22 10:28:21;;;;;;;19.25;8.38;;;;;;;;;;5029095;28;20064;-68
2024/03/22 10:30:48;;;;;;;17.27;7.10;;;;;;;;;;5033940;28;20041;-68
2024/03/22 10:33:14;;;;;;;9.18;4.80;;;;;;;;;;5033020;28;20108;-68
2024/03/22 10:35:39;;;;;;;19.73;7.15;;;;;;;;;;5036706;28;20112;-68
2024/03/22 10:38:06;;;;;;;16.00;7.00;;;;;;;;;;5027282;28;20491;-68
2024/03/22 10:40:31;;;;;;;14.93;6.65;;;;;;;;;;5030145;28;20341;-68
2024/03/22 10:42:57;;;;;;;13.45;6.82;;;;;;;;;;5031555;28;20875;-68
2024/03/22 10:45:25;;;;;;;19.55;6.78;;;;;;;;;;5030343;28;20025;-67
2024/03/22 10:47:52;;;;;;;18.13;6.80;;;;;;;;;;5036177;28;20028;-68
2024/03/22 10:50:18;;;;;;;14.27;7.38;;;;;;;;;;5025351;28;20029;-68
2024/03/22 10:52:50;;;;;;;17.25;7.07;;;;;;;;;;5034846;28;20025;-68
2024/03/22 10:55:19;;;;;;;19.60;7.35;;;;;;;;;;5027353;28;20033;-68
2024/03/22 10:57:44;;;;;;;14.70;7.43;;;;;;;;;;5028261;28;20017;-67
2024/03/22 11:00:10;;;;;;;17.35;5.90;;;;;;;;;;5034231;28;20102;-67
2024/03/22 11:02:35;;;;;;;8.77;4.50;;;;;;;;;;5031737;28;20489;-68
2024/03/22 11:05:00;;;;;;;12.88;4.13;;;;;;;;;;5033897;28;20104;-68
2024/03/22 11:07:32;;;;;;;19.60;9.40;;;;;;;;;;5023584;28;20140;-69
2024/03/22 11:09:58;;;;;;;24.38;8.77;;;;;;;;;;5033006;28;20934;-69
2024/03/22 11:12:26;;;;;;;16.13;7.57;;;;;;;;;;5025894;28;20087;-69
2024/03/22 11:14:52;;;;;;;13.40;6.28;;;;;;;;;;5032803;28;20422;-69
2024/03/22 11:17:17;;;;;;;25.27;8.88;;;;;;;;;;5036630;28;20025;-69
2024/03/22 11:19:43;;;;;;;14.30;7.83;;;;;;;;;;5029167;28;20033;-68
2024/03/22 11:22:08;;;;;;;15.25;7.22;;;;;;;;;;5033240;28;20261;-69
2024/03/22 11:24:36;;;;;;;18.90;8.80;;;;;;;;;;5035593;28;20134;-69
2024/03/22 11:27:02;;;;;;;16.35;7.15;;;;;;;;;;5033347;28;20290;-69
2024/03/22 11:29:27;;;;;;;18.27;7.47;;;;;;;;;;5029784;28;20086;-68
2024/03/22 11:31:52;;;;;;;12.03;5.07;;;;;;;;;;5033600;28;20076;-69
2024/03/22 11:34:17;;;;;;;17.07;6.97;;;;;;;;;;5033435;28;20021;-68
2024/03/22 11:36:42;;;;;;;18.73;8.20;;;;;;;;;;5037567;28;20286;-69
2024/03/22 11:39:08;;;;;;;26.67;9.98;;;;;;;;;;5030329;28;20438;-68
2024/03/22 11:41:34;;;;;;;18.60;8.43;;;;;;;;;;5028680;28;20032;-69
2024/03/22 11:44:00;;;;;;;12.73;5.20;;;;;;;;;;5027437;28;20411;-68
2024/03/22 11:46:26;;;;;;;22.55;9.82;;;;;;;;;;5032493;28;20029;-68
2024/03/22 11:48:52;;;;;;;18.52;10.10;;;;;;;;;;5042645;28;20017;-69
2024/03/22 11:51:17;;;;;;;18.35;8.90;;;;;;;;;;5035893;28;20449;-69
2024/03/22 11:53:48;;;;;;;23.63;9.40;;;;;;;;;;5028572;28;20076;-68
2024/03/22 11:56:13;;;;;;;22.10;8.90;;;;;;;;;;5028799;28;20029;-69
2024/03/22 11:58:39;;;;;;;15.57;8.17;;;;;;;;;;5028045;28;20033;-68
2024/03/22 12:01:04;;;;;;;21.70;8.97;;;;;;;;;;5031074;28;20366;-68
2024/03/22 12:03:30;;;;;;;20.90;9.17;;;;;;;;;;5030060;28;20009;-68
2024/03/22 12:05:55;;;;;;;11.38;5.00;;;;;;;;;;5028982;28;20318;-68
2024/03/22 12:08:20;;;;;;;22.63;10.03;;;;;;;;;;5033481;28;20492;-68
2024/03/22 12:10:45;;;;;;;26.45;9.57;;;;;;;;;;5027969;28;20270;-68
2024/03/22 12:13:10;;;;;;;21.07;7.90;;;;;;;;;;5033516;28;20100;-68
2024/03/22 12:15:36;;;;;;;20.80;8.63;;;;;;;;;;5032960;28;20421;-68
2024/03/22 12:18:01;;;;;;;32.87;9.33;;;;;;;;;;5033450;28;20584;-69
2024/03/22 12:20:27;;;;;;;24.67;8.07;;;;;;;;;;5028687;28;20264;-69
2024/03/22 12:22:52;;;;;;;22.15;8.63;;;;;;;;;;5034332;28;20070;-69
2024/03/22 12:25:17;;;;;;;21.30;9.07;;;;;;;;;;5027548;28;20029;-69
2024/03/22 12:27:44;;;;;;;17.03;8.83;;;;;;;;;;5025161;28;20295;-69
2024/03/22 12:30:09;;;;;;;21.15;10.18;;;;;;;;;;5027803;28;20021;-68
2024/03/22 12:32:34;;;;;;;16.67;7.97;;;;;;;;;;5027656;28;20028;-69
2024/03/22 12:35:00;;;;;;;17.47;7.90;;;;;;;;;;5030166;28;20063;-68
2024/03/22 12:37:25;;;;;;;20.75;8.98;;;;;;;;;;5026560;28;20404;-67
2024/03/22 12:39:52;;;;;;;22.30;9.47;;;;;;;;;;5029691;28;20017;-68
2024/03/22 12:42:17;;;;;;;35.38;11.23;;;;;;;;;;5036441;28;20244;-69
2024/03/22 12:44:42;;;;;;;24.50;10.48;;;;;;;;;;5030290;28;20243;-68
2024/03/22 12:47:07;;;;;;;13.03;6.33;;;;;;;;;;5022264;28;20373;-69
2024/03/22 12:49:32;;;;;;;21.23;10.67;;;;;;;;;;5031977;28;20276;-69
2024/03/22 12:51:58;;;;;;;27.40;12.90;;;;;;;;;;5028579;28;20252;-69
2024/03/22 12:54:23;;;;;;;31.07;11.00;;;;;;;;;;5033164;28;20755;-69
2024/03/22 12:56:49;;;;;;;29.88;13.57;;;;;;;;;;5033939;28;20338;-69
2024/03/22 12:59:15;;;;;;;21.25;9.77;;;;;;;;;;5030774;28;20052;-69
2024/03/22 13:01:40;;;;;;;19.92;10.07;;;;;;;;;;5029926;28;20056;-69
2024/03/22 13:04:05;;;;;;;29.97;9.07;;;;;;;;;;5036863;28;20041;-69
2024/03/22 13:06:30;;;;;;;22.97;12.20;;;;;;;;;;5023918;28;20287;-69
2024/03/22 13:08:55;;;;;;;27.43;10.63;;;;;;;;;;5026201;28;20279;-70
2024/03/22 13:11:20;;;;;;;21.57;9.97;;;;;;;;;;5027601;28;20029;-68
2024/03/22 13:13:45;;;;;;;26.40;11.67;;;;;;;;;;5033749;28;20029;-69
2024/03/22 13:16:14;;;;;;;28.77;13.00;;;;;;;;;;5031856;28;20039;-68
2024/03/22 13:18:39;;;;;;;21.40;10.30;;;;;;;;;;5029402;28;20334;-68
2024/03/22 13:21:05;;;;;;;23.70;11.18;;;;;;;;;;5035255;28;20029;-67
2024/03/22 13:23:30;;;;;;;25.65;11.27;;;;;;;;;;5032278;28;20365;-68
2024/03/22 13:25:58;;;;;;;23.30;11.00;;;;;;;;;;5033229;28;20105;-69
2024/03/22 13:28:24;;;;;;;20.80;11.10;;;;;;;;;;5037216;28;20040;-69
2024/03/22 13:30:49;;;;;;;26.25;12.40;;;;;;;;;;5044770;28;20024;-70
2024/03/22 13:33:14;;;;;;;25.35;12.30;;;;;;;;;;5034277;28;20476;-67
2024/03/22 13:35:41;;;;;;;27.77;14.23;;;;;;;;;;5030571;28;20025;-68
2024/03/22 13:38:08;;;;;;;26.58;13.45;;;;;;;;;;5030429;28;20256;-68
2024/03/22 13:40:34;;;;;;;27.98;12.25;;;;;;;;;;5028830;28;20052;-68
2024/03/22 13:42:59;;;;;;;23.43;12.93;;;;;;;;;;5034098;28;20030;-68
2024/03/22 13:45:24;;;;;;;23.75;12.05;;;;;;;;;;5037464;28;20626;-68
2024/03/22 13:47:49;;;;;;;32.63;12.50;;;;;;;;;;5040438;28;20369;-68
2024/03/22 13:50:14;;;;;;;28.23;13.33;;;;;;;;;;5033566;28;20144;-68
2024/03/22 13:52:39;;;;;;;23.60;11.83;;;;;;;;;;5029490;28;20623;-68
2024/03/22 13:55:05;;;;;;;27.40;13.47;;;;;;;;;;5031042;28;20096;-67
2024/03/22 13:57:31;;;;;;;28.35;13.73;;;;;;;;;;5029978;28;20021;-68
2024/03/22 13:59:56;;;;;;;27.17;13.07;;;;;;;;;;5031263;28;20056;-68
2024/03/22 14:02:21;;;;;;;29.60;12.47;;;;;;;;;;5030606;28;20017;-68
2024/03/22 14:04:46;;;;;;;27.77;15.00;;;;;;;;;;5027825;28;20814;-68
2024/03/22 14:07:12;;;;;;;26.63;11.00;;;;;;;;;;5028973;28;20025;-68
2024/03/22 14:09:37;;;;;;;29.73;13.13;;;;;;;;;;5024262;28;20025;-68
2024/03/22 14:12:02;;;;;;;25.70;11.63;;;;;;;;;;5030851;28;20030;-68